createdAt,value
2018-07-31T00:00:46.500Z,5.17
2018-07-31T00:03:15.682Z,8.33
2018-07-31T00:05:49.710Z,7.33
2018-07-31T00:08:19.409Z,8.87
2018-07-31T00:10:54.345Z,5.20
2018-07-31T00:13:23.611Z,10.53
2018-07-31T00:15:54.166Z,8.43
2018-07-31T00:18:24.265Z,6.07
2018-07-31T00:20:54.516Z,9.67
2018-07-31T00:23:24.111Z,7.03
2018-07-31T00:25:53.979Z,6.73
2018-07-31T00:28:23.499Z,6.50
2018-07-31T00:30:53.265Z,6.13
2018-07-31T00:33:26.332Z,7.17
2018-07-31T00:35:56.118Z,6.53
2018-07-31T00:38:25.224Z,8.10
2018-07-31T00:40:54.768Z,6.93
2018-07-31T00:43:25.916Z,8.00
2018-07-31T00:45:59.264Z,5.20
2018-07-31T00:48:30.183Z,9.93
2018-07-31T00:51:01.773Z,7.80
2018-07-31T00:53:31.985Z,8.50
2018-07-31T00:56:02.277Z,5.67
2018-07-31T00:58:31.408Z,10.00
2018-07-31T01:01:05.395Z,9.33
2018-07-31T01:03:35.241Z,10.73
2018-07-31T01:06:05.473Z,7.97
2018-07-31T01:08:35.541Z,5.93
2018-07-31T01:11:04.397Z,6.40
2018-07-31T01:13:34.182Z,6.53
2018-07-31T01:16:03.169Z,10.30
2018-07-31T01:18:33.274Z,10.80
2018-07-31T01:21:04.270Z,4.67
2018-07-31T01:23:35.069Z,5.87
2018-07-31T01:26:04.025Z,7.77
2018-07-31T01:28:34.850Z,6.77
2018-07-31T01:31:03.668Z,6.90
2018-07-31T01:33:34.559Z,7.37
2018-07-31T01:36:08.467Z,8.97
2018-07-31T01:38:39.171Z,7.50
2018-07-31T01:41:13.164Z,8.33
2018-07-31T01:43:43.178Z,4.50
2018-07-31T01:46:13.386Z,8.83
2018-07-31T01:48:43.265Z,5.47
2018-07-31T01:51:14.334Z,7.60
2018-07-31T01:53:44.686Z,6.23
2018-07-31T01:56:13.927Z,9.33
2018-07-31T01:58:42.907Z,8.27
2018-07-31T02:01:14.650Z,5.50
2018-07-31T02:03:48.202Z,7.13
2018-07-31T02:06:18.469Z,9.03
2018-07-31T02:08:48.826Z,6.53
2018-07-31T02:11:20.499Z,8.43
2018-07-31T02:13:49.884Z,6.17
2018-07-31T02:16:19.392Z,12.13
2018-07-31T02:18:48.430Z,6.10
2018-07-31T02:21:19.303Z,8.50
2018-07-31T02:23:51.774Z,9.77
2018-07-31T02:27:34.269Z,6.97
2018-07-31T02:30:09.302Z,9.43
2018-07-31T02:32:39.025Z,9.37
2018-07-31T02:35:11.184Z,10.27
2018-07-31T02:37:40.857Z,10.43
2018-07-31T02:40:10.776Z,9.07
2018-07-31T02:42:41.200Z,13.00
2018-07-31T02:45:14.130Z,7.70
2018-07-31T02:47:51.073Z,10.27
2018-07-31T02:50:21.305Z,9.90
2018-07-31T02:52:51.037Z,12.13
2018-07-31T02:55:21.001Z,10.13
2018-07-31T02:57:50.493Z,11.70
2018-07-31T03:00:19.464Z,9.57
2018-07-31T03:02:49.259Z,8.27
2018-07-31T03:05:18.683Z,8.73
2018-07-31T03:07:47.815Z,8.70
2018-07-31T03:10:17.358Z,10.43
2018-07-31T03:12:47.168Z,6.77
2018-07-31T03:15:16.202Z,6.93
2018-07-31T03:17:46.696Z,6.33
2018-07-31T03:20:18.735Z,8.07
2018-07-31T03:22:48.866Z,6.87
2018-07-31T03:25:17.740Z,9.13
2018-07-31T03:27:47.076Z,9.00
2018-07-31T03:30:18.358Z,9.40
2018-07-31T03:32:47.882Z,6.07
2018-07-31T03:35:17.296Z,7.07
2018-07-31T03:37:46.738Z,8.03
2018-07-31T03:40:16.197Z,10.60
2018-07-31T03:42:46.191Z,5.37
2018-07-31T03:45:15.375Z,7.43
2018-07-31T03:47:45.233Z,7.20
2018-07-31T03:50:15.389Z,5.57
2018-07-31T03:52:51.242Z,8.10
2018-07-31T03:55:20.266Z,8.23
2018-07-31T03:57:49.066Z,7.27
2018-07-31T04:00:18.199Z,10.60
2018-07-31T04:02:47.861Z,5.60
2018-07-31T04:05:19.618Z,9.40
2018-07-31T04:07:52.200Z,8.50
2018-07-31T04:10:21.053Z,7.53
2018-07-31T04:12:51.482Z,6.53
2018-07-31T04:15:21.472Z,7.60
2018-07-31T04:17:55.876Z,5.73
2018-07-31T04:20:29.265Z,7.20
2018-07-31T04:23:08.250Z,10.77
2018-07-31T04:25:38.744Z,9.97
2018-07-31T04:28:13.363Z,8.50
2018-07-31T04:30:46.812Z,7.10
2018-07-31T04:33:16.111Z,6.53
2018-07-31T04:35:46.385Z,7.67
2018-07-31T04:38:14.747Z,10.17
2018-07-31T04:40:51.123Z,8.47
2018-07-31T04:43:20.432Z,8.00
2018-07-31T04:45:49.111Z,9.30
2018-07-31T04:48:17.603Z,10.80
2018-07-31T04:50:45.778Z,8.50
2018-07-31T04:53:15.552Z,11.20
2018-07-31T04:55:44.151Z,8.67
2018-07-31T04:58:13.519Z,11.40
2018-07-31T05:00:42.008Z,6.87
2018-07-31T05:03:10.687Z,8.47
2018-07-31T05:05:39.912Z,9.57
2018-07-31T05:08:08.498Z,8.33
2018-07-31T05:10:36.989Z,10.93
2018-07-31T05:13:06.710Z,8.13
2018-07-31T05:15:35.241Z,8.53
2018-07-31T05:18:03.927Z,7.27
2018-07-31T05:20:33.301Z,10.47
2018-07-31T05:23:02.738Z,12.63
2018-07-31T05:25:31.355Z,12.97
2018-07-31T05:28:00.002Z,17.33
2018-07-31T05:30:30.278Z,8.93
2018-07-31T05:32:59.234Z,9.80
2018-07-31T05:35:27.820Z,9.70
2018-07-31T05:37:56.392Z,13.53
2018-07-31T05:40:25.068Z,10.23
2018-07-31T05:42:53.744Z,11.10
2018-07-31T05:45:22.333Z,11.87
2018-07-31T05:47:50.948Z,12.33
2018-07-31T05:50:20.141Z,10.30
2018-07-31T05:52:49.752Z,9.00
2018-07-31T05:55:18.341Z,12.70
2018-07-31T05:57:47.590Z,11.83
2018-07-31T06:00:16.143Z,13.43
2018-07-31T06:02:45.388Z,10.27
2018-07-31T06:05:13.952Z,13.73
2018-07-31T06:07:44.387Z,16.73
2018-07-31T06:10:12.675Z,11.20
2018-07-31T06:12:42.495Z,10.93
2018-07-31T06:15:13.027Z,12.90
2018-07-31T06:17:44.425Z,10.67
2018-07-31T06:20:15.469Z,16.70
2018-07-31T06:22:45.520Z,15.00
2018-07-31T06:25:17.172Z,14.83
2018-07-31T06:27:47.792Z,12.43
2018-07-31T06:30:17.350Z,13.50
2018-07-31T06:32:49.193Z,11.37
2018-07-31T06:35:18.038Z,11.70
2018-07-31T06:37:48.946Z,12.93
2018-07-31T06:40:22.411Z,9.00
2018-07-31T06:42:55.097Z,11.50
2018-07-31T06:45:25.241Z,12.17
2018-07-31T06:47:57.189Z,9.00
2018-07-31T06:50:26.091Z,14.37
2018-07-31T06:52:54.824Z,14.47
2018-07-31T06:55:25.571Z,9.77
2018-07-31T06:57:55.265Z,10.67
2018-07-31T07:00:25.178Z,10.60
2018-07-31T07:02:55.459Z,10.93
2018-07-31T07:05:29.693Z,16.87
2018-07-31T07:07:58.622Z,8.33
2018-07-31T07:10:29.051Z,10.63
2018-07-31T07:12:58.293Z,9.30
2018-07-31T07:15:45.982Z,5.87
2018-07-31T07:18:16.426Z,9.53
2018-07-31T07:20:54.079Z,10.73
2018-07-31T07:23:31.528Z,10.80
2018-07-31T07:26:01.290Z,8.70
2018-07-31T07:28:39.509Z,9.73
2018-07-31T07:31:10.755Z,9.17
2018-07-31T07:33:41.224Z,8.03
2018-07-31T07:36:34.357Z,6.47
2018-07-31T07:39:11.274Z,10.03
2018-07-31T07:41:42.456Z,9.03
2018-07-31T07:44:14.929Z,7.90
2018-07-31T07:46:49.801Z,6.05
2018-07-31T07:49:20.520Z,7.30
2018-07-31T07:51:51.564Z,8.57
2018-07-31T07:54:31.344Z,7.78
2018-07-31T07:57:01.634Z,7.40
2018-07-31T07:59:39.531Z,9.25
2018-07-31T08:02:14.862Z,6.50
2018-07-31T08:04:43.747Z,7.77
2018-07-31T08:07:12.691Z,9.23
2018-07-31T08:09:41.611Z,10.97
2018-07-31T08:12:12.045Z,7.33
2018-07-31T08:14:40.816Z,9.85
2018-07-31T08:17:09.524Z,14.73
2018-07-31T08:19:39.389Z,26.55
2018-07-31T08:22:08.725Z,19.33
2018-07-31T08:24:38.868Z,12.53
2018-07-31T08:27:08.182Z,21.07
2018-07-31T08:29:36.960Z,18.33
2018-07-31T08:32:05.596Z,13.87
2018-07-31T08:34:38.791Z,13.73
2018-07-31T08:37:23.601Z,12.40
2018-07-31T08:39:53.352Z,9.23
2018-07-31T08:42:22.686Z,11.43
2018-07-31T08:44:51.786Z,13.73
2018-07-31T08:47:26.138Z,14.90
2018-07-31T08:50:03.062Z,9.50
2018-07-31T08:52:37.240Z,9.83
2018-07-31T08:59:42.832Z,8.57
2018-07-31T09:02:13.326Z,12.70
2018-07-31T09:11:44.516Z,11.53
2018-07-31T09:14:32.911Z,9.57
2018-07-31T09:17:01.541Z,5.60
2018-07-31T09:19:30.188Z,6.47
2018-07-31T09:25:06.352Z,5.20
2018-07-31T09:27:35.210Z,9.17
2018-07-31T09:30:05.942Z,4.60
2018-07-31T09:32:40.184Z,6.90
2018-07-31T09:35:09.172Z,7.70
2018-07-31T09:37:39.548Z,6.55
2018-07-31T09:40:14.299Z,6.80
2018-07-31T09:45:42.039Z,9.90
2018-07-31T09:48:11.620Z,10.35
2018-07-31T09:50:42.287Z,7.55
2018-07-31T09:53:10.903Z,10.28
2018-07-31T10:00:48.565Z,12.40
2018-07-31T10:03:37.304Z,8.63
2018-07-31T10:07:12.365Z,11.08
2018-07-31T10:12:55.618Z,14.30
2018-07-31T10:15:24.273Z,10.73
2018-07-31T10:17:52.768Z,20.08
2018-07-31T10:20:21.347Z,15.13
2018-07-31T10:22:50.116Z,18.00
2018-07-31T10:25:18.699Z,18.63
2018-07-31T10:27:47.446Z,21.40
2018-07-31T10:30:17.159Z,24.93
2018-07-31T10:32:45.922Z,17.13
2018-07-31T10:35:14.592Z,14.30
2018-07-31T10:37:44.275Z,21.10
2018-07-31T10:40:12.832Z,15.97
2018-07-31T10:42:41.353Z,13.37
2018-07-31T10:45:09.689Z,10.83
2018-07-31T10:47:38.399Z,9.17
2018-07-31T10:50:07.097Z,8.53
2018-07-31T10:52:35.695Z,5.37
2018-07-31T10:55:04.123Z,7.27
2018-07-31T10:57:32.870Z,10.57
2018-07-31T11:00:01.813Z,9.37
2018-07-31T11:02:31.290Z,8.65
2018-07-31T11:05:01.875Z,5.17
2018-07-31T11:07:30.562Z,4.40
2018-07-31T11:09:59.849Z,7.00
2018-07-31T11:12:29.120Z,6.37
2018-07-31T11:14:58.473Z,10.43
2018-07-31T11:17:28.207Z,5.63
2018-07-31T11:19:59.044Z,3.93
2018-07-31T11:22:27.882Z,3.27
2018-07-31T11:24:56.801Z,3.93
2018-07-31T11:27:26.305Z,6.03
2018-07-31T11:29:55.131Z,5.20
2018-07-31T11:32:23.907Z,6.10
2018-07-31T11:34:54.562Z,8.10
2018-07-31T11:37:23.283Z,3.87
2018-07-31T11:39:52.954Z,5.53
2018-07-31T11:42:21.682Z,4.83
2018-07-31T11:44:50.301Z,4.67
2018-07-31T11:47:20.622Z,2.53
2018-07-31T11:49:54.687Z,4.87
2018-07-31T11:52:26.314Z,6.67
2018-07-31T11:55:13.647Z,5.27
2018-07-31T11:57:42.638Z,3.70
2018-07-31T12:00:13.007Z,8.60
2018-07-31T12:02:41.765Z,3.13
2018-07-31T12:05:12.633Z,5.77
2018-07-31T12:07:41.314Z,7.25
2018-07-31T12:10:10.023Z,2.98
2018-07-31T12:12:38.833Z,3.87
2018-07-31T12:15:07.625Z,13.00
2018-07-31T12:17:36.286Z,6.47
2018-07-31T12:20:05.866Z,8.28
2018-07-31T12:22:37.724Z,7.75
2018-07-31T12:25:06.742Z,4.33
2018-07-31T12:27:35.540Z,6.70
2018-07-31T12:30:08.944Z,4.75
2018-07-31T12:32:42.183Z,7.42
2018-07-31T12:35:21.586Z,5.80
2018-07-31T12:37:51.186Z,5.85
2018-07-31T12:40:20.139Z,2.85
2018-07-31T12:42:49.187Z,5.05
2018-07-31T12:45:17.846Z,4.05
2018-07-31T12:47:46.760Z,8.45
2018-07-31T12:50:16.908Z,6.87
2018-07-31T12:52:45.721Z,5.60
2018-07-31T12:55:15.804Z,3.70
2018-07-31T12:57:46.049Z,5.95
2018-07-31T13:00:15.862Z,3.05
2018-07-31T13:02:44.787Z,7.05
2018-07-31T13:05:14.881Z,3.33
2018-07-31T13:07:46.158Z,6.55
2018-07-31T13:10:15.764Z,1.72
2018-07-31T13:12:44.676Z,2.90
2018-07-31T13:15:13.498Z,5.28
2018-07-31T13:17:43.062Z,5.78
2018-07-31T13:20:12.546Z,4.67
2018-07-31T13:22:42.796Z,3.30
2018-07-31T13:25:11.683Z,5.65
2018-07-31T13:27:46.503Z,5.90
2018-07-31T13:30:16.204Z,5.50
2018-07-31T13:32:46.046Z,2.92
2018-07-31T13:35:16.377Z,7.67
2018-07-31T13:37:45.486Z,4.37
2018-07-31T13:40:17.322Z,6.25
2018-07-31T13:42:47.100Z,4.83
2018-07-31T13:45:21.180Z,8.55
2018-07-31T13:47:53.213Z,4.60
2018-07-31T13:50:22.483Z,4.95
2018-07-31T13:52:51.172Z,10.35
2018-07-31T13:55:21.705Z,4.47
2018-07-31T13:57:51.001Z,4.40
2018-07-31T14:00:19.721Z,3.75
2018-07-31T14:02:49.619Z,6.22
2018-07-31T14:05:18.408Z,5.58
2018-07-31T14:07:47.846Z,3.08
2018-07-31T14:10:16.660Z,3.20
2018-07-31T14:12:45.306Z,4.33
2018-07-31T14:15:14.460Z,8.53
2018-07-31T14:17:43.213Z,6.28
2018-07-31T14:20:12.537Z,4.83
2018-07-31T14:22:42.297Z,7.05
2018-07-31T14:25:16.928Z,8.00
2018-07-31T14:27:46.480Z,6.80
2018-07-31T14:30:15.402Z,7.35
2018-07-31T14:32:44.302Z,10.58
2018-07-31T14:35:13.904Z,5.85
2018-07-31T14:37:42.597Z,8.80
2018-07-31T14:40:11.793Z,9.18
2018-07-31T14:42:40.517Z,6.65
2018-07-31T14:45:09.857Z,9.58
2018-07-31T14:47:38.391Z,6.65
2018-07-31T14:50:08.037Z,5.70
2018-07-31T14:52:36.600Z,6.28
2018-07-31T14:55:05.308Z,6.45
2018-07-31T14:57:33.848Z,6.53
2018-07-31T15:00:02.387Z,5.87
2018-07-31T15:02:30.898Z,10.72
2018-07-31T15:04:59.427Z,6.50
2018-07-31T15:07:27.967Z,8.73
2018-07-31T15:09:58.453Z,5.62
2018-07-31T15:12:27.006Z,7.47
2018-07-31T15:14:55.624Z,7.33
2018-07-31T15:17:24.316Z,4.17
2018-07-31T15:19:53.478Z,5.87
2018-07-31T15:22:22.035Z,5.55
2018-07-31T15:24:50.588Z,5.25
2018-07-31T15:27:19.070Z,6.83
2018-07-31T15:29:47.677Z,5.90
2018-07-31T15:32:16.164Z,5.53
2018-07-31T15:34:44.716Z,5.20
2018-07-31T15:37:13.642Z,4.90
2018-07-31T15:39:42.202Z,5.20
2018-07-31T15:42:11.799Z,5.47
2018-07-31T15:45:01.934Z,6.62
2018-07-31T15:47:44.368Z,6.70
2018-07-31T15:53:47.708Z,3.08
2018-07-31T15:56:18.136Z,4.33
2018-07-31T16:04:24.509Z,4.90
2018-07-31T16:07:17.408Z,5.30
2018-07-31T16:10:38.290Z,4.87
2018-07-31T16:13:24.372Z,5.50
2018-07-31T16:15:54.786Z,6.75
2018-07-31T16:18:34.542Z,5.78
2018-07-31T16:21:25.302Z,7.30
2018-07-31T16:32:22.627Z,3.92
2018-07-31T16:35:29.076Z,5.42
2018-07-31T16:38:31.941Z,4.92
2018-07-31T16:47:28.859Z,7.35
2018-07-31T18:28:00.427Z,8.90
2018-07-31T18:30:44.406Z,5.83
2018-07-31T18:40:48.684Z,6.27
2018-07-31T18:50:05.369Z,12.33
2018-07-31T18:52:47.695Z,9.63
2018-07-31T18:55:47.842Z,14.70
2018-07-31T18:58:20.328Z,11.03
2018-07-31T19:00:54.737Z,9.57
2018-07-31T20:12:13.463Z,11.03
2018-07-31T20:24:33.844Z,14.77
2018-07-31T20:27:12.423Z,12.63
2018-07-31T20:35:26.848Z,6.30
2018-07-31T20:38:24.927Z,10.30
2018-07-31T20:41:01.466Z,11.87
2018-07-31T20:48:34.992Z,8.63
2018-07-31T20:51:47.827Z,12.10
2018-07-31T20:54:46.019Z,14.00
2018-07-31T23:21:55.334Z,18.47
2018-07-31T23:24:24.963Z,12.90
2018-07-31T23:26:56.297Z,16.00
2018-07-31T23:29:30.870Z,15.30
2018-07-31T23:32:01.569Z,18.00
2018-07-31T23:34:33.868Z,13.77
2018-07-31T23:37:06.011Z,18.33
2018-07-31T23:39:37.042Z,20.80
2018-07-31T23:42:14.492Z,14.63
2018-07-31T23:45:08.802Z,13.13
2018-07-31T23:47:42.012Z,15.87
2018-07-31T23:50:19.087Z,14.13
2018-07-31T23:59:30.000Z,13.77
